Time;durP1;ratioP1;P1;durP2;ratioP2;P2;SDS_P1;SDS_P2;PMS_P1;PMS_P2;Temp;Humidity;BMP_temperature;BMP_pressure;BME280_temperature;BME280_humidity;BME280_pressure;Samples;Min_cycle;Max_cycle;Signal;HPM_P1;HPM_P2
2023/07/12 00:00:28;;;;;;;13.48;9.88;;;;;;;28.48;42.33;99575.22;4499828;31;33508;-73
2023/07/12 00:02:56;;;;;;;11.52;9.65;;;;;;;28.47;42.35;99578.22;4498460;31;33781;-73
2023/07/12 00:05:26;;;;;;;12.50;10.18;;;;;;;28.45;42.21;99578.50;4492082;31;34777;-72
2023/07/12 00:07:54;;;;;;;12.37;9.30;;;;;;;28.42;42.16;99584.50;4469965;32;34035;-69
2023/07/12 00:10:27;;;;;;;13.10;10.23;;;;;;;28.43;42.15;99582.59;4484049;32;33132;-67
2023/07/12 00:12:54;;;;;;;13.57;9.65;;;;;;;28.43;42.19;99582.59;4484095;32;33446;-72
2023/07/12 00:15:26;;;;;;;13.55;10.20;;;;;;;28.42;42.20;99572.72;4483648;32;33868;-70
2023/07/12 00:17:54;;;;;;;11.23;9.23;;;;;;;28.42;42.20;99576.28;4483835;32;33803;-73
2023/07/12 00:20:27;;;;;;;14.38;9.73;;;;;;;28.41;42.14;99563.66;4482698;32;33405;-73
2023/07/12 00:22:55;;;;;;;12.30;9.75;;;;;;;28.41;42.07;99563.66;4485460;32;34534;-71
2023/07/12 00:25:24;;;;;;;13.90;9.70;;;;;;;28.41;42.01;99576.56;4485683;32;34780;-70
2023/07/12 00:27:52;;;;;;;11.93;9.18;;;;;;;28.38;42.00;99580.63;4484493;32;34586;-74
2023/07/12 00:30:19;;;;;;;12.73;9.50;;;;;;;28.39;41.98;99582.28;4484191;31;33335;-71
2023/07/12 00:32:48;;;;;;;13.93;9.57;;;;;;;28.37;42.00;99578.16;4485523;32;34263;-74
2023/07/12 00:35:24;;;;;;;11.57;9.68;;;;;;;28.36;42.02;99565.56;4484478;32;33337;-70
2023/07/12 00:37:56;;;;;;;14.87;9.70;;;;;;;28.37;41.93;99569.94;4484262;32;32751;-69
2023/07/12 00:40:53;;;;;;;13.50;10.00;;;;;;;28.35;41.87;99574.84;4485642;32;33555;-73
2023/07/12 00:43:57;;;;;;;12.75;9.93;;;;;;;28.36;41.83;99569.13;4485604;32;33939;-74
2023/07/12 00:46:47;;;;;;;13.98;9.98;;;;;;;28.36;41.87;99562.81;4485625;32;33821;-73
2023/07/12 00:49:15;;;;;;;12.35;10.10;;;;;;;28.35;41.95;99567.47;4485382;32;34523;-71
2023/07/12 00:52:13;;;;;;;12.75;10.43;;;;;;;28.29;42.00;99560.25;4485469;32;33537;-73
2023/07/12 00:54:50;;;;;;;11.15;8.93;;;;;;;28.31;41.96;99560.81;4484274;32;33995;-73
2023/07/12 00:57:18;;;;;;;12.65;9.25;;;;;;;28.28;41.85;99560.53;4485393;32;34635;-73
2023/07/12 00:59:46;;;;;;;13.62;9.82;;;;;;;28.27;41.81;99570.69;4485403;32;33826;-70
2023/07/12 01:02:13;;;;;;;12.05;8.63;;;;;;;28.27;41.85;99567.94;4485479;32;34599;-73
2023/07/12 01:04:43;;;;;;;15.13;9.43;;;;;;;28.26;41.87;99559.94;4487226;31;34605;-71
2023/07/12 01:07:14;;;;;;;10.90;9.25;;;;;;;28.26;41.88;99552.56;4500018;31;33899;-73
2023/07/12 01:09:42;;;;;;;11.73;9.30;;;;;;;28.27;41.86;99534.19;4500003;31;34813;-70
2023/07/12 01:12:11;;;;;;;14.40;9.68;;;;;;;28.26;41.90;99525.12;4501056;31;34237;-73
2023/07/12 01:14:40;;;;;;;13.30;9.63;;;;;;;28.27;41.87;99525.94;4501166;31;34221;-69
2023/07/12 01:17:07;;;;;;;13.18;9.90;;;;;;;28.25;41.92;99523.44;4486882;31;34996;-73
2023/07/12 01:19:36;;;;;;;15.40;10.23;;;;;;;28.25;41.93;99526.19;4500965;31;33431;-71
2023/07/12 01:22:04;;;;;;;14.50;9.40;;;;;;;28.25;41.98;99528.13;4486842;31;34168;-74
2023/07/12 01:24:34;;;;;;;11.85;9.48;;;;;;;28.25;41.99;99526.19;4500989;31;33471;-74
2023/07/12 01:27:11;;;;;;;14.80;10.07;;;;;;;28.24;42.07;99521.81;4499715;31;33798;-73
2023/07/12 01:29:39;;;;;;;11.25;8.88;;;;;;;28.25;42.10;99515.22;4487411;31;34064;-73
2023/07/12 01:32:10;;;;;;;11.35;9.85;;;;;;;28.23;42.09;99512.75;4500486;31;34308;-74
2023/07/12 01:34:37;;;;;;;11.95;8.93;;;;;;;28.22;42.04;99519.34;4499792;31;34046;-74
2023/07/12 01:37:05;;;;;;;11.45;9.13;;;;;;;28.21;41.95;99517.69;4500845;31;33990;-71
2023/07/12 01:39:33;;;;;;;12.65;8.52;;;;;;;28.21;41.75;99523.19;4500747;31;33853;-73
2023/07/12 01:42:01;;;;;;;11.88;8.65;;;;;;;28.21;41.71;99522.31;4500953;31;33413;-73
2023/07/12 01:44:29;;;;;;;11.80;9.32;;;;;;;28.20;41.60;99524.25;4500836;31;33746;-74
2023/07/12 01:46:56;;;;;;;10.57;8.55;;;;;;;28.21;41.59;99527.81;4501040;31;33937;-68
2023/07/12 01:49:25;;;;;;;14.07;8.40;;;;;;;28.20;41.48;99529.72;4500854;31;34122;-72
2023/07/12 01:51:53;;;;;;;12.13;8.02;;;;;;;28.22;41.29;99534.97;4500846;31;33709;-72
2023/07/12 01:54:21;;;;;;;13.48;8.25;;;;;;;28.19;41.03;99533.56;4496823;31;34654;-70
2023/07/12 01:56:48;;;;;;;10.57;8.10;;;;;;;28.19;40.99;99535.50;4486413;31;33681;-65
2023/07/12 01:59:16;;;;;;;9.75;7.10;;;;;;;28.19;40.93;99538.25;4489082;31;33814;-64
2023/07/12 02:01:43;;;;;;;12.50;7.62;;;;;;;28.18;40.79;99542.91;4500591;31;33279;-64
2023/07/12 02:04:11;;;;;;;10.18;7.78;;;;;;;28.18;40.60;99537.41;4500723;31;34927;-73
2023/07/12 02:06:39;;;;;;;9.63;7.53;;;;;;;28.18;40.70;99542.09;4484978;32;33740;-66
2023/07/12 02:09:06;;;;;;;11.50;7.50;;;;;;;28.18;40.83;99540.16;4483123;31;33880;-65
2023/07/12 02:11:34;;;;;;;10.15;7.43;;;;;;;28.19;40.78;99538.25;4484786;32;34232;-67
2023/07/12 02:14:02;;;;;;;10.55;7.68;;;;;;;28.19;40.62;99530.00;4484681;32;33546;-68
2023/07/12 02:16:30;;;;;;;11.50;7.55;;;;;;;28.18;40.50;99520.13;4484523;32;33532;-66
2023/07/12 02:18:57;;;;;;;9.77;7.45;;;;;;;28.17;40.28;99527.53;4484903;32;33617;-66
2023/07/12 02:21:25;;;;;;;10.10;7.25;;;;;;;28.17;40.24;99533.03;4485050;32;33505;-64
2023/07/12 02:23:53;;;;;;;9.20;7.25;;;;;;;28.17;40.14;99522.06;4484604;32;34571;-64
2023/07/12 02:26:20;;;;;;;10.48;7.00;;;;;;;28.15;40.13;99518.72;4484736;32;33976;-64
2023/07/12 02:28:48;;;;;;;11.20;7.18;;;;;;;28.15;40.03;99506.94;4484783;32;33958;-64
2023/07/12 02:31:20;;;;;;;19.67;7.28;;;;;;;28.14;39.97;99506.13;4496496;31;33531;-64
2023/07/12 02:33:49;;;;;;;11.75;7.22;;;;;;;28.14;40.25;99500.63;4499691;31;33472;-64
2023/07/12 02:36:17;;;;;;;13.30;7.30;;;;;;;28.16;40.44;99505.84;4491779;31;33989;-64
2023/07/12 02:38:46;;;;;;;12.57;6.97;;;;;;;28.16;40.60;99490.19;4497252;31;33728;-71
2023/07/12 02:41:17;;;;;;;12.13;7.28;;;;;;;28.17;40.63;99493.81;4498099;31;33204;-64
2023/07/12 02:43:46;;;;;;;9.27;6.75;;;;;;;28.16;40.63;99495.69;4493732;31;34381;-66
2023/07/12 02:46:13;;;;;;;10.38;7.07;;;;;;;28.17;40.68;99491.88;4481845;31;33991;-66
2023/07/12 02:48:41;;;;;;;12.37;6.85;;;;;;;28.18;40.69;99493.53;4498070;31;33787;-70
2023/07/12 02:51:09;;;;;;;11.02;6.82;;;;;;;28.20;40.68;99496.81;4498469;31;32781;-67
2023/07/12 02:53:38;;;;;;;12.40;6.62;;;;;;;28.20;40.72;99502.31;4499416;31;34383;-65
2023/07/12 02:56:08;;;;;;;15.05;6.78;;;;;;;28.21;40.72;99494.91;4499134;31;34770;-65
2023/07/12 02:58:36;;;;;;;16.90;7.10;;;;;;;28.20;40.74;99491.31;4499041;31;34655;-71
2023/07/12 03:01:04;;;;;;;11.55;7.10;;;;;;;28.21;40.76;99489.41;4500473;31;33527;-66
2023/07/12 03:03:32;;;;;;;14.02;6.93;;;;;;;28.20;40.79;99480.34;4500255;31;34725;-70
2023/07/12 03:06:08;;;;;;;10.05;6.78;;;;;;;28.22;40.80;99488.34;4500077;31;34683;-66
2023/07/12 03:08:36;;;;;;;10.68;6.22;;;;;;;28.22;40.84;99485.59;4499885;31;33380;-71
2023/07/12 03:11:04;;;;;;;8.23;5.87;;;;;;;28.22;40.81;99480.09;4485234;31;34340;-65
2023/07/12 03:13:32;;;;;;;11.52;6.65;;;;;;;28.22;40.80;99483.69;4484800;32;34507;-70
2023/07/12 03:16:05;;;;;;;9.18;6.82;;;;;;;28.23;40.82;99470.78;4483822;32;33273;-69
2023/07/12 03:18:33;;;;;;;9.98;6.43;;;;;;;28.21;40.89;99482.03;4483591;32;33909;-66
2023/07/12 03:21:02;;;;;;;10.50;6.55;;;;;;;28.23;40.90;99490.00;4484548;32;34110;-70
2023/07/12 03:23:30;;;;;;;8.02;5.95;;;;;;;28.22;40.88;99489.16;4483515;32;33999;-66
2023/07/12 03:25:57;;;;;;;8.98;5.95;;;;;;;28.23;40.84;99490.00;4470125;32;34143;-65
2023/07/12 03:28:26;;;;;;;8.98;6.20;;;;;;;28.23;40.77;99495.47;4484192;32;34689;-66
2023/07/12 03:31:03;;;;;;;13.83;6.40;;;;;;;28.21;40.76;99493.00;4489590;31;33552;-67
2023/07/12 03:33:31;;;;;;;9.45;6.43;;;;;;;28.23;40.61;99498.22;4500088;31;34567;-66
2023/07/12 03:35:59;;;;;;;14.30;5.80;;;;;;;28.20;40.44;99494.06;4499814;31;34584;-70
2023/07/12 03:38:28;;;;;;;11.77;6.50;;;;;;;28.19;40.37;99492.44;4500052;31;34271;-65
2023/07/12 03:40:59;;;;;;;14.50;6.60;;;;;;;28.19;40.35;99497.09;4500188;31;33599;-67
2023/07/12 03:43:27;;;;;;;11.07;6.40;;;;;;;28.20;40.45;99496.81;4485780;31;34028;-67
2023/07/12 03:45:54;;;;;;;11.43;6.07;;;;;;;28.19;40.49;99500.66;4485642;31;33835;-73
2023/07/12 03:48:23;;;;;;;8.30;5.90;;;;;;;28.18;40.50;99499.00;4495454;31;33440;-64
2023/07/12 03:50:51;;;;;;;10.77;5.37;;;;;;;28.19;40.50;99500.66;4483429;31;34203;-65
2023/07/12 03:53:19;;;;;;;8.98;5.72;;;;;;;28.18;40.50;99500.94;4489651;31;34699;-64
2023/07/12 03:55:47;;;;;;;11.80;5.70;;;;;;;28.18;40.49;99504.50;4494261;31;34858;-67
2023/07/12 03:58:17;;;;;;;8.55;5.32;;;;;;;28.19;40.51;99511.63;4489738;31;33798;-71
2023/07/12 04:00:46;;;;;;;6.62;4.95;;;;;;;28.18;40.53;99498.19;4499732;31;34353;-64
2023/07/12 04:03:14;;;;;;;9.82;6.00;;;;;;;28.19;40.51;99500.66;4498807;31;33600;-66
2023/07/12 04:05:41;;;;;;;8.60;5.30;;;;;;;28.20;40.50;99505.03;4497221;31;34034;-66
2023/07/12 04:08:11;;;;;;;7.90;5.00;;;;;;;28.19;40.56;99500.66;4495574;31;33930;-71
2023/07/12 04:10:38;;;;;;;7.32;5.62;;;;;;;28.19;40.56;99500.66;4499675;31;33209;-71
2023/07/12 04:13:06;;;;;;;8.63;5.50;;;;;;;28.21;40.55;99511.34;4499584;31;33885;-70
2023/07/12 04:15:34;;;;;;;10.25;5.87;;;;;;;28.21;40.59;99520.44;4499688;31;33845;-70
2023/07/12 04:18:03;;;;;;;8.18;5.28;;;;;;;28.20;40.66;99520.69;4484877;31;34750;-64
2023/07/12 04:20:31;;;;;;;9.45;5.35;;;;;;;28.22;40.61;99524.00;4471976;31;33698;-71
2023/07/12 04:22:58;;;;;;;8.32;4.97;;;;;;;28.21;40.64;99522.31;4498767;31;34080;-70
2023/07/12 04:25:26;;;;;;;8.55;5.05;;;;;;;28.20;40.63;99520.69;4498644;31;34490;-68
2023/07/12 04:27:54;;;;;;;8.40;6.22;;;;;;;28.21;40.66;99530.56;4499422;31;34328;-69
2023/07/12 04:30:21;;;;;;;11.85;5.80;;;;;;;28.20;40.69;99529.72;4499427;31;33160;-71
2023/07/12 04:32:51;;;;;;;7.97;5.25;;;;;;;28.20;40.72;99506.97;4499444;31;35331;-71
2023/07/12 04:35:19;;;;;;;8.57;5.18;;;;;;;28.21;40.69;99487.53;4499260;31;33825;-67
2023/07/12 04:37:48;;;;;;;8.55;5.97;;;;;;;28.20;40.63;99474.87;4499237;31;33724;-70
2023/07/12 04:40:17;;;;;;;10.40;5.53;;;;;;;28.20;40.68;99490.50;4499347;31;33350;-71
2023/07/12 04:42:45;;;;;;;8.93;5.87;;;;;;;28.21;40.68;99495.75;4498923;31;33753;-69
2023/07/12 04:45:13;;;;;;;7.18;5.47;;;;;;;28.20;40.70;99483.09;4499146;31;33782;-70
2023/07/12 04:47:41;;;;;;;8.05;5.57;;;;;;;28.20;40.74;99461.16;4499179;31;34130;-68
2023/07/12 04:50:10;;;;;;;7.65;5.37;;;;;;;28.21;40.78;99462.81;4493797;31;33686;-71
2023/07/12 04:52:37;;;;;;;8.68;5.78;;;;;;;28.21;40.80;99483.91;4498978;31;33990;-71
2023/07/12 04:55:18;;;;;;;7.97;5.57;;;;;;;28.21;40.83;99486.66;4499043;31;34402;-70
2023/07/12 04:57:46;;;;;;;9.93;5.50;;;;;;;28.21;40.85;99481.19;4498988;31;34687;-71
2023/07/12 05:00:14;;;;;;;9.50;5.37;;;;;;;28.22;40.81;99471.88;4499034;31;33597;-69
2023/07/12 05:02:42;;;;;;;11.10;6.12;;;;;;;28.22;40.82;99488.34;4498523;31;34653;-72
2023/07/12 05:05:11;;;;;;;10.20;5.93;;;;;;;28.21;40.86;99500.38;4498743;31;34670;-71
2023/07/12 05:07:40;;;;;;;9.82;5.80;;;;;;;28.21;40.89;99503.97;4499832;31;35026;-70
2023/07/12 05:10:08;;;;;;;8.63;5.82;;;;;;;28.21;40.89;99503.97;4501057;31;34115;-72
2023/07/12 05:12:35;;;;;;;7.57;5.22;;;;;;;28.22;40.91;99494.66;4501148;31;33910;-71
2023/07/12 05:15:04;;;;;;;9.18;5.12;;;;;;;28.22;40.94;99486.41;4501119;31;34751;-69
2023/07/12 05:17:31;;;;;;;6.62;5.25;;;;;;;28.22;40.95;99485.59;4500824;31;34342;-72
2023/07/12 05:19:59;;;;;;;10.85;5.75;;;;;;;28.22;40.96;99488.34;4501041;31;33305;-69
2023/07/12 05:22:27;;;;;;;9.82;6.22;;;;;;;28.23;40.95;99481.75;4500929;31;34096;-71
2023/07/12 05:24:56;;;;;;;7.15;5.15;;;;;;;28.21;40.97;99468.31;4500938;31;34553;-71
2023/07/12 05:27:24;;;;;;;7.80;5.60;;;;;;;28.21;41.04;99476.53;4486884;31;33974;-71
2023/07/12 05:29:51;;;;;;;8.35;5.40;;;;;;;28.23;40.95;99479.84;4473865;31;33248;-71
2023/07/12 05:32:19;;;;;;;8.70;5.68;;;;;;;28.23;40.95;99468.88;4486577;31;33969;-69
2023/07/12 05:34:46;;;;;;;6.80;5.22;;;;;;;28.25;40.97;99478.72;4501294;31;34181;-70
2023/07/12 05:37:14;;;;;;;7.30;5.30;;;;;;;28.25;40.96;99470.50;4500854;31;34866;-70
2023/07/12 05:39:42;;;;;;;8.23;4.80;;;;;;;28.26;40.95;99462.03;4500819;31;34297;-71
2023/07/12 05:42:10;;;;;;;7.90;5.55;;;;;;;28.26;40.91;99477.63;4500787;31;34047;-71
2023/07/12 05:44:38;;;;;;;8.18;5.57;;;;;;;28.27;40.88;99471.09;4499913;31;34049;-71
2023/07/12 05:47:06;;;;;;;9.05;6.20;;;;;;;28.28;40.84;99467.25;4500809;31;34656;-70
2023/07/12 05:49:34;;;;;;;6.90;5.20;;;;;;;28.28;40.83;99478.22;4500967;31;33594;-65
2023/07/12 05:52:03;;;;;;;7.28;5.28;;;;;;;28.29;40.82;99488.91;4501201;31;33899;-71
2023/07/12 05:54:30;;;;;;;8.43;6.28;;;;;;;28.30;40.79;99476.84;4499482;31;33249;-68
2023/07/12 05:56:58;;;;;;;7.00;5.03;;;;;;;28.29;40.79;99458.72;4500696;31;34871;-71
2023/07/12 05:59:25;;;;;;;7.25;5.22;;;;;;;28.30;40.79;99452.13;4500813;31;33071;-70
2023/07/12 06:01:53;;;;;;;8.40;5.18;;;;;;;28.30;40.79;99441.16;4500838;31;34285;-71
2023/07/12 06:04:21;;;;;;;7.47;5.05;;;;;;;28.30;40.80;99446.66;4500732;31;33788;-69
2023/07/12 06:06:50;;;;;;;7.68;5.80;;;;;;;28.31;40.80;99445.59;4500780;31;34629;-71
2023/07/12 06:09:18;;;;;;;7.95;5.62;;;;;;;28.32;40.78;99449.16;4500846;31;34129;-67
2023/07/12 06:11:45;;;;;;;8.02;5.22;;;;;;;28.33;40.78;99448.88;4500767;31;33956;-66
2023/07/12 06:14:13;;;;;;;7.53;4.85;;;;;;;28.32;40.82;99438.19;4500530;31;34864;-71
2023/07/12 06:16:42;;;;;;;7.55;5.12;;;;;;;28.32;40.83;99430.75;4499462;31;34714;-70
2023/07/12 06:19:10;;;;;;;8.30;5.95;;;;;;;28.34;40.87;99433.22;4485574;31;33357;-66
2023/07/12 06:21:38;;;;;;;11.88;6.12;;;;;;;28.35;40.86;99432.16;4501561;31;34225;-64
2023/07/12 06:24:06;;;;;;;9.07;6.15;;;;;;;28.34;40.94;99427.75;4502154;31;36204;-70
2023/07/12 06:26:34;;;;;;;8.15;5.78;;;;;;;28.34;40.95;99420.38;4502056;31;33644;-65
2023/07/12 06:29:02;;;;;;;9.48;5.50;;;;;;;28.35;40.97;99419.28;4498926;31;33600;-70
2023/07/12 06:31:29;;;;;;;7.62;5.65;;;;;;;28.36;40.96;99414.63;4512208;31;87477;-72
2023/07/12 06:34:00;;;;;;;10.23;5.20;;;;;;;28.37;40.97;99410.78;4516042;31;34395;-69
2023/07/12 06:36:28;;;;;;;7.45;5.70;;;;;;;28.36;41.01;99425.59;4505769;31;33647;-63
2023/07/12 06:38:55;;;;;;;8.32;5.62;;;;;;;28.37;41.00;99430.00;4500661;31;33043;-66
2023/07/12 06:41:23;;;;;;;9.65;5.72;;;;;;;28.36;40.99;99434.66;4500459;31;33846;-74
2023/07/12 06:43:50;;;;;;;7.85;5.40;;;;;;;28.37;41.00;99443.72;4500591;31;34503;-74
2023/07/12 06:46:18;;;;;;;8.50;5.50;;;;;;;28.38;41.01;99445.34;4500106;31;34672;-69
2023/07/12 06:48:46;;;;;;;8.50;5.40;;;;;;;28.37;41.05;99435.47;4500349;31;33676;-70
2023/07/12 06:51:13;;;;;;;7.65;5.10;;;;;;;28.37;41.05;99443.72;4500126;31;34858;-74
2023/07/12 06:53:41;;;;;;;7.80;5.55;;;;;;;28.38;41.06;99437.13;4500256;31;33887;-63
2023/07/12 06:56:08;;;;;;;9.43;5.55;;;;;;;28.37;41.09;99440.97;4500642;31;33569;-70
2023/07/12 06:58:36;;;;;;;7.53;5.03;;;;;;;28.37;41.09;99432.75;4485893;31;33332;-64
2023/07/12 07:01:08;;;;;;;8.82;5.97;;;;;;;28.37;41.12;99432.75;4500413;31;34698;-66
2023/07/12 07:03:36;;;;;;;7.45;4.90;;;;;;;28.37;41.14;99430.81;4485868;31;33879;-69
2023/07/12 07:06:04;;;;;;;7.35;5.53;;;;;;;28.37;41.14;99430.81;4500135;31;34247;-73
2023/07/12 07:08:32;;;;;;;7.20;5.12;;;;;;;28.37;41.16;99430.81;4486044;31;33349;-63
2023/07/12 07:11:00;;;;;;;7.07;5.05;;;;;;;28.37;41.16;99414.34;4485943;31;33941;-73
2023/07/12 07:13:28;;;;;;;7.62;5.00;;;;;;;28.37;41.18;99414.34;4500253;31;35021;-63
2023/07/12 07:15:56;;;;;;;7.18;5.12;;;;;;;28.37;41.19;99397.06;4500163;31;33884;-67
2023/07/12 07:18:23;;;;;;;7.85;5.20;;;;;;;28.38;41.22;99390.47;4500172;31;33042;-67
2023/07/12 07:20:52;;;;;;;7.50;5.20;;;;;;;28.38;41.23;99388.56;4500175;31;33653;-65
2023/07/12 07:23:19;;;;;;;7.57;5.10;;;;;;;28.37;41.24;99367.72;4496117;31;33956;-74
2023/07/12 07:25:47;;;;;;;7.00;5.03;;;;;;;28.38;41.27;99368.53;4486615;31;34438;-65
2023/07/12 07:28:15;;;;;;;9.43;5.43;;;;;;;28.38;41.27;99368.53;4486172;31;34341;-64
2023/07/12 07:30:42;;;;;;;7.35;5.03;;;;;;;28.39;41.28;99362.75;4486676;31;33928;-75
2023/07/12 07:33:10;;;;;;;7.07;5.20;;;;;;;28.40;41.28;99358.13;4499954;31;33905;-64
2023/07/12 07:35:37;;;;;;;7.03;4.47;;;;;;;28.40;41.32;99360.87;4500037;31;33798;-73
2023/07/12 07:38:05;;;;;;;7.90;4.62;;;;;;;28.41;41.32;99357.03;4500051;31;34344;-70
2023/07/12 07:40:33;;;;;;;7.12;5.32;;;;;;;28.42;41.32;99350.44;4499772;31;34641;-72
2023/07/12 07:43:00;;;;;;;7.60;4.85;;;;;;;28.41;41.34;99355.09;4499922;31;34859;-75
2023/07/12 07:45:28;;;;;;;7.25;4.90;;;;;;;28.41;41.36;99346.03;4500275;31;33806;-75
2023/07/12 07:47:56;;;;;;;6.82;5.18;;;;;;;28.42;41.36;99355.91;4499799;31;33631;-73
2023/07/12 07:50:23;;;;;;;8.10;4.87;;;;;;;28.42;41.40;99344.94;4499957;31;34804;-74
2023/07/12 07:52:53;;;;;;;6.03;4.05;;;;;;;28.42;41.41;99347.69;4499398;31;34008;-66
2023/07/12 07:55:21;;;;;;;7.68;5.20;;;;;;;28.43;41.41;99343.84;4498585;31;33706;-63
2023/07/12 07:57:48;;;;;;;7.03;4.45;;;;;;;28.43;41.41;99335.59;4498720;31;34414;-63
2023/07/12 08:00:16;;;;;;;6.85;4.90;;;;;;;28.43;41.44;99333.69;4499616;31;34816;-73
2023/07/12 08:02:44;;;;;;;7.70;4.97;;;;;;;28.43;41.44;99319.16;4499591;31;34079;-67
2023/07/12 08:05:12;;;;;;;6.62;5.05;;;;;;;28.43;41.45;99317.22;4499317;31;34785;-70
2023/07/12 08:07:40;;;;;;;6.30;4.62;;;;;;;28.45;41.45;99325.19;4499509;31;33409;-69
2023/07/12 08:10:10;;;;;;;6.43;4.87;;;;;;;28.43;41.48;99314.47;4499563;31;33519;-75
2023/07/12 08:12:37;;;;;;;6.32;4.30;;;;;;;28.44;41.49;99313.38;4499719;31;33815;-63
2023/07/12 08:15:05;;;;;;;6.20;4.53;;;;;;;28.45;41.47;99295.84;4499620;31;34703;-72
2023/07/12 08:17:33;;;;;;;6.25;4.62;;;;;;;28.45;41.49;99295.84;4499498;31;33528;-69
2023/07/12 08:20:01;;;;;;;7.18;4.68;;;;;;;28.45;41.51;99295.00;4499340;31;33735;-64
2023/07/12 08:22:29;;;;;;;6.45;4.62;;;;;;;28.45;41.52;99306.81;4499514;31;34964;-63
2023/07/12 08:24:57;;;;;;;7.87;4.78;;;;;;;28.47;41.53;99309.28;4499270;31;34091;-69
2023/07/12 08:27:24;;;;;;;7.87;4.80;;;;;;;28.46;41.53;99302.16;4498786;31;34390;-62
2023/07/12 08:29:51;;;;;;;8.55;4.75;;;;;;;28.45;41.53;99304.06;4499363;31;34050;-75
2023/07/12 08:32:19;;;;;;;7.50;4.70;;;;;;;28.45;41.55;99301.31;4499116;31;33970;-65
2023/07/12 08:34:47;;;;;;;7.12;4.53;;;;;;;28.47;41.54;99299.13;4499344;31;34761;-73
2023/07/12 08:37:14;;;;;;;6.57;4.70;;;;;;;28.45;41.55;99290.34;4499343;31;34378;-62
2023/07/12 08:39:42;;;;;;;7.22;5.30;;;;;;;28.47;41.57;99317.50;4497274;31;34365;-63
2023/07/12 08:42:12;;;;;;;7.37;5.12;;;;;;;28.47;41.58;99323.81;4499464;31;33460;-65
2023/07/12 08:44:39;;;;;;;6.57;4.72;;;;;;;28.46;41.62;99322.19;4500473;31;34606;-73
2023/07/12 08:47:10;;;;;;;7.28;5.22;;;;;;;28.48;41.60;99316.41;4500103;31;33282;-62
2023/07/12 08:49:38;;;;;;;7.93;5.03;;;;;;;28.46;41.63;99308.44;4500257;31;33845;-74
2023/07/12 08:52:06;;;;;;;7.12;4.55;;;;;;;28.47;41.64;99304.59;4500873;31;34755;-74
2023/07/12 08:54:34;;;;;;;6.40;4.82;;;;;;;28.49;41.66;99309.81;4486932;31;34783;-63
2023/07/12 08:57:18;;;;;;;7.78;5.07;;;;;;;28.48;41.66;99317.22;4487302;31;33087;-74
2023/07/12 09:00:02;;;;;;;7.55;5.18;;;;;;;28.50;41.64;99322.47;4500657;31;33740;-64
2023/07/12 09:02:31;;;;;;;5.70;4.35;;;;;;;28.48;41.68;99332.88;4492100;31;34325;-73
2023/07/12 09:05:00;;;;;;;6.07;4.68;;;;;;;28.47;41.71;99333.97;4485243;32;33856;-63
2023/07/12 09:07:30;;;;;;;6.57;4.80;;;;;;;28.47;41.71;99336.72;4471250;32;33280;-67
2023/07/12 09:09:59;;;;;;;7.97;4.20;;;;;;;28.48;41.73;99352.09;4485405;32;33928;-74
2023/07/12 09:12:31;;;;;;;6.30;4.40;;;;;;;28.48;41.73;99357.56;4485328;32;34099;-75
2023/07/12 09:15:03;;;;;;;6.78;4.90;;;;;;;28.50;41.74;99346.34;4485218;32;34194;-63
2023/07/12 09:17:36;;;;;;;6.50;4.85;;;;;;;28.48;41.73;99346.59;4485186;31;33843;-64
2023/07/12 09:20:22;;;;;;;6.07;4.32;;;;;;;28.48;41.76;99343.84;4495127;31;34100;-71
2023/07/12 09:22:50;;;;;;;6.50;4.50;;;;;;;28.48;41.76;99341.94;4488061;31;34851;-75
2023/07/12 09:25:20;;;;;;;6.12;4.43;;;;;;;28.49;41.75;99340.00;4501040;31;33385;-68
2023/07/12 09:27:48;;;;;;;6.22;4.12;;;;;;;28.48;41.78;99336.44;4501049;31;34394;-62
2023/07/12 09:30:22;;;;;;;7.55;4.68;;;;;;;28.50;41.77;99343.59;4500427;31;33847;-74
2023/07/12 09:32:49;;;;;;;5.43;4.10;;;;;;;28.47;41.79;99345.78;4501025;31;34118;-74
2023/07/12 09:35:40;;;;;;;6.22;4.75;;;;;;;28.51;41.79;99356.22;4499708;31;33884;-62
2023/07/12 09:38:12;;;;;;;6.68;4.35;;;;;;;28.52;41.76;99361.44;4501262;31;33066;-63
2023/07/12 09:40:42;;;;;;;6.93;4.70;;;;;;;28.50;41.82;99358.13;4500891;31;33845;-69
2023/07/12 09:43:13;;;;;;;6.25;4.05;;;;;;;28.51;41.84;99369.94;4486809;31;34102;-69
2023/07/12 09:45:42;;;;;;;6.15;4.40;;;;;;;28.51;41.81;99365.28;4500997;31;33828;-72
2023/07/12 09:48:54;;;;;;;6.65;4.25;;;;;;;28.51;41.81;99365.28;4488785;31;33195;-65
2023/07/12 09:51:52;;;;;;;6.00;4.07;;;;;;;28.53;41.79;99360.31;4500614;31;33456;-63
2023/07/12 09:55:14;;;;;;;6.20;4.20;;;;;;;28.53;41.82;99357.59;4500952;31;33985;-64
2023/07/12 09:58:03;;;;;;;6.62;4.40;;;;;;;28.53;41.85;99354.00;4431809;32;34570;-63
2023/07/12 10:00:47;;;;;;;7.07;4.47;;;;;;;28.48;41.91;99354.81;4490958;31;34418;-62
2023/07/12 10:03:26;;;;;;;6.18;4.28;;;;;;;28.50;41.90;99360.87;4493684;31;33906;-74
2023/07/12 10:06:00;;;;;;;5.90;3.92;;;;;;;28.48;41.93;99347.41;4495165;31;34889;-74
2023/07/12 10:08:55;;;;;;;5.87;4.00;;;;;;;28.50;41.92;99344.41;4487179;31;34815;-75
2023/07/12 10:11:39;;;;;;;5.70;4.10;;;;;;;28.53;41.87;99343.03;4469548;32;33504;-71
2023/07/12 10:14:08;;;;;;;6.18;4.55;;;;;;;28.51;41.91;99343.31;4471673;32;33643;-74
2023/07/12 10:16:40;;;;;;;6.22;4.18;;;;;;;28.50;41.97;99333.44;4471061;32;33834;-63
2023/07/12 10:19:16;;;;;;;6.55;4.55;;;;;;;28.48;41.98;99333.69;4471397;32;33862;-71
2023/07/12 10:21:44;;;;;;;6.78;4.00;;;;;;;28.51;41.95;99337.00;4471092;31;34232;-74
2023/07/12 10:24:15;;;;;;;5.43;4.10;;;;;;;28.50;41.96;99330.69;4483629;32;33895;-70
2023/07/12 10:26:44;;;;;;;5.03;3.92;;;;;;;28.50;41.99;99324.38;4492907;31;33896;-73
2023/07/12 10:29:21;;;;;;;6.15;4.32;;;;;;;28.52;41.97;99319.44;4494997;31;33892;-70
2023/07/12 10:31:56;;;;;;;5.93;3.97;;;;;;;28.52;41.96;99328.50;4483563;32;33384;-73
2023/07/12 10:34:28;;;;;;;6.20;4.30;;;;;;;28.51;41.98;99320.53;4484633;32;34674;-73
2023/07/12 10:37:02;;;;;;;5.45;4.00;;;;;;;28.52;41.99;99302.97;4484819;32;34028;-72
2023/07/12 10:39:29;;;;;;;6.45;4.20;;;;;;;28.52;41.98;99300.22;4470602;32;34344;-74
2023/07/12 10:42:05;;;;;;;5.70;4.35;;;;;;;28.52;41.98;99287.31;4483619;32;33641;-64
2023/07/12 10:44:41;;;;;;;6.75;4.68;;;;;;;28.52;42.00;99284.56;4483619;32;33388;-74
2023/07/12 10:47:12;;;;;;;5.45;3.80;;;;;;;28.52;42.00;99292.81;4483579;32;34063;-63
2023/07/12 10:49:52;;;;;;;5.32;3.90;;;;;;;28.52;42.00;99295.56;4482240;31;34329;-74
2023/07/12 10:52:27;;;;;;;5.90;4.20;;;;;;;28.54;42.00;99303.50;4490046;31;34330;-73
2023/07/12 10:55:06;;;;;;;6.18;4.10;;;;;;;28.55;41.99;99307.94;4488854;31;34688;-75
2023/07/12 10:57:46;;;;;;;5.70;3.65;;;;;;;28.55;41.98;99306.00;4500510;31;34053;-74
2023/07/12 11:00:13;;;;;;;;;;;;;;;28.54;42.00;99318.09;4500449;31;35049;-72
2023/07/12 11:02:46;;;;;;;6.15;4.20;;;;;;;28.64;41.79;99309.84;4500354;31;33743;-75
2023/07/12 11:06:06;;;;;;;6.43;4.35;;;;;;;28.55;41.98;99306.00;4499754;31;34854;-70
2023/07/12 11:08:34;;;;;;;5.90;4.20;;;;;;;28.58;41.96;99301.88;4435413;32;34721;-73
2023/07/12 11:11:08;;;;;;;5.37;3.60;;;;;;;28.55;42.04;99305.19;4422766;32;33974;-74
2023/07/12 11:13:41;;;;;;;5.72;4.10;;;;;;;28.55;42.06;99310.66;4466321;31;34583;-70
2023/07/12 11:16:19;;;;;;;5.22;4.18;;;;;;;28.53;42.08;99304.59;4457883;31;33957;-63
2023/07/12 11:18:56;;;;;;;5.97;3.87;;;;;;;28.55;42.07;99311.50;4499125;31;34427;-74
2023/07/12 11:21:45;;;;;;;5.45;3.87;;;;;;;28.54;42.08;99309.84;4500264;31;33376;-72
2023/07/12 11:24:30;;;;;;;5.53;3.97;;;;;;;28.54;42.10;99314.50;4500312;31;33106;-74
2023/07/12 11:26:59;;;;;;;6.18;4.20;;;;;;;28.56;42.06;99318.62;4498760;31;33543;-73
2023/07/12 11:29:35;;;;;;;6.43;4.45;;;;;;;28.53;42.11;99323.81;4481154;32;33856;-74
2023/07/12 11:32:26;;;;;;;5.43;3.72;;;;;;;28.55;42.09;99325.22;4484163;32;33918;-63
2023/07/12 11:35:19;;;;;;;6.35;4.68;;;;;;;28.54;42.14;99336.44;4484359;32;33339;-66
2023/07/12 11:37:48;;;;;;;6.12;4.70;;;;;;;28.54;42.25;99334.56;4483849;32;33908;-65
2023/07/12 11:40:26;;;;;;;8.45;6.10;;;;;;;28.55;42.40;99332.63;4457349;32;34674;-65
2023/07/12 11:42:54;;;;;;;9.00;5.87;;;;;;;28.58;42.55;99321.09;4470075;32;33594;-65
2023/07/12 11:45:22;;;;;;;8.82;5.85;;;;;;;28.57;42.74;99322.19;4484588;32;33238;-63
2023/07/12 11:47:52;;;;;;;8.13;6.25;;;;;;;28.58;42.85;99326.56;4484161;32;33923;-63